createdAt,value
2024-03-02T00:00:14.427Z,8.05
2024-03-02T00:02:48.000Z,8.07
2024-03-02T00:05:16.311Z,8.04
2024-03-02T00:07:44.120Z,8.12
2024-03-02T00:10:12.515Z,8.14
2024-03-02T00:12:40.272Z,8.09
2024-03-02T00:15:44.561Z,8.08
2024-03-02T00:18:13.666Z,8.09
2024-03-02T00:20:41.424Z,8.06
2024-03-02T00:23:09.787Z,8.06
2024-03-02T00:25:50.407Z,8.07
2024-03-02T00:28:21.237Z,8.08
2024-03-02T00:31:04.622Z,8.08
2024-03-02T00:33:38.412Z,8.10
2024-03-02T00:36:06.344Z,8.11
2024-03-02T00:38:33.403Z,8.11
2024-03-02T00:41:04.965Z,8.12
2024-03-02T00:43:47.477Z,8.12
2024-03-02T00:46:19.929Z,8.14
2024-03-02T00:48:52.591Z,8.14
2024-03-02T00:51:19.267Z,8.15
2024-03-02T00:53:46.126Z,8.17
2024-03-02T00:56:18.160Z,8.15
2024-03-02T00:58:44.744Z,8.18
2024-03-02T01:01:11.382Z,8.17
2024-03-02T01:03:38.486Z,8.18
2024-03-02T01:06:05.584Z,8.19
2024-03-02T01:08:31.994Z,8.20
2024-03-02T01:10:58.453Z,8.19
2024-03-02T01:13:25.016Z,8.19
2024-03-02T01:15:51.752Z,8.21
2024-03-02T01:18:18.300Z,8.19
2024-03-02T01:20:44.704Z,8.17
2024-03-02T01:23:11.143Z,8.18
2024-03-02T01:25:37.646Z,8.16
2024-03-02T01:28:05.101Z,8.32
2024-03-02T01:30:31.851Z,8.24
2024-03-02T01:33:00.245Z,8.23
2024-03-02T01:35:27.762Z,8.19
2024-03-02T01:37:54.727Z,8.18
2024-03-02T01:40:21.514Z,8.15
2024-03-02T01:42:48.040Z,8.16
2024-03-02T01:45:14.591Z,8.18
2024-03-02T01:47:41.196Z,8.18
2024-03-02T01:50:08.725Z,8.16
2024-03-02T01:52:35.161Z,8.17
2024-03-02T01:55:01.974Z,8.17
2024-03-02T01:57:28.499Z,8.13
2024-03-02T01:59:55.091Z,8.14
2024-03-02T02:02:21.641Z,8.14
2024-03-02T02:04:48.179Z,8.14
2024-03-02T02:07:15.525Z,8.13
2024-03-02T02:09:45.368Z,8.13
2024-03-02T02:12:12.270Z,8.14
2024-03-02T02:14:40.226Z,8.14
2024-03-02T02:17:06.652Z,8.18
2024-03-02T02:19:33.062Z,8.20
2024-03-02T02:21:59.573Z,8.21
2024-03-02T02:24:26.103Z,8.18
2024-03-02T02:26:52.534Z,8.17
2024-03-02T02:29:18.944Z,8.17
2024-03-02T02:31:45.368Z,8.15
2024-03-02T02:34:11.822Z,8.14
2024-03-02T02:36:40.292Z,8.13
2024-03-02T02:39:08.932Z,8.13
2024-03-02T02:41:35.361Z,8.13
2024-03-02T02:44:01.765Z,8.12
2024-03-02T02:46:28.191Z,8.11
2024-03-02T02:48:54.929Z,8.18
2024-03-02T02:51:21.446Z,8.26
2024-03-02T02:53:47.900Z,8.20
2024-03-02T02:56:14.348Z,8.15
2024-03-02T02:58:42.469Z,8.14
2024-03-02T03:01:09.020Z,8.13
2024-03-02T03:03:35.520Z,8.11
2024-03-02T03:06:01.980Z,8.10
2024-03-02T03:08:28.408Z,8.10
2024-03-02T03:10:54.923Z,8.06
2024-03-02T03:13:21.383Z,8.07
2024-03-02T03:15:47.821Z,8.07
2024-03-02T03:18:14.341Z,8.06
2024-03-02T03:20:40.828Z,8.07
2024-03-02T03:23:07.293Z,8.07
2024-03-02T03:25:33.720Z,8.07
2024-03-02T03:28:00.188Z,8.07
2024-03-02T03:30:26.840Z,8.09
2024-03-02T03:32:53.261Z,8.12
2024-03-02T03:35:19.715Z,8.08
2024-03-02T03:37:46.159Z,8.06
2024-03-02T03:40:12.557Z,8.06
2024-03-02T03:42:39.386Z,8.04
2024-03-02T03:45:09.458Z,8.02
2024-03-02T03:47:36.044Z,8.01
2024-03-02T03:50:05.646Z,8.02
2024-03-02T03:52:32.107Z,8.02
2024-03-02T03:54:58.619Z,8.01
2024-03-02T03:57:25.186Z,8.00
2024-03-02T03:59:51.786Z,8.00
2024-03-02T04:02:18.199Z,7.98
2024-03-02T04:04:44.837Z,7.98
2024-03-02T04:07:11.455Z,7.98
2024-03-02T04:09:37.976Z,7.97
2024-03-02T04:12:04.677Z,7.96
2024-03-02T04:14:31.129Z,7.95
2024-03-02T04:16:57.522Z,7.96
2024-03-02T04:19:24.253Z,7.94
2024-03-02T04:21:50.686Z,7.96
2024-03-02T04:24:17.132Z,7.97
2024-03-02T04:26:43.564Z,7.96
2024-03-02T04:29:10.001Z,7.96
2024-03-02T04:31:36.473Z,7.94
2024-03-02T04:34:03.000Z,7.94
2024-03-02T04:36:29.484Z,7.96
2024-03-02T04:38:56.082Z,7.99
2024-03-02T04:41:22.493Z,7.99
2024-03-02T04:43:48.921Z,8.02
2024-03-02T04:46:15.340Z,8.04
2024-03-02T04:48:41.816Z,7.99
2024-03-02T04:51:08.278Z,7.99
2024-03-02T04:53:34.676Z,7.98
2024-03-02T04:56:21.069Z,7.98
2024-03-02T04:58:47.872Z,7.98
2024-03-02T05:01:14.420Z,7.99
2024-03-02T05:03:40.960Z,8.00
2024-03-02T05:06:07.414Z,7.99
2024-03-02T05:08:35.043Z,8.01
2024-03-02T05:11:21.515Z,8.01
2024-03-02T05:13:47.949Z,8.02
2024-03-02T05:16:14.369Z,8.02
2024-03-02T05:18:40.970Z,8.02
2024-03-02T05:21:07.420Z,8.03
2024-03-02T05:23:34.340Z,8.02
2024-03-02T05:26:00.757Z,8.01
2024-03-02T05:28:27.246Z,8.00
2024-03-02T05:30:53.687Z,7.99
2024-03-02T05:33:23.561Z,8.00
2024-03-02T05:35:52.836Z,7.98
2024-03-02T05:38:19.395Z,8.00
2024-03-02T05:40:45.982Z,7.99
2024-03-02T05:43:12.835Z,8.00
2024-03-02T05:45:40.502Z,8.00
2024-03-02T05:48:10.413Z,8.01
2024-03-02T05:50:36.935Z,8.03
2024-03-02T05:53:03.361Z,8.04
2024-03-02T05:55:29.762Z,8.03
2024-03-02T05:58:08.300Z,8.02
2024-03-02T06:00:34.880Z,8.03
2024-03-02T06:03:01.413Z,8.15
2024-03-02T06:05:28.146Z,8.30
2024-03-02T06:07:54.567Z,8.32
2024-03-02T06:10:21.904Z,8.19
2024-03-02T06:12:48.434Z,8.17
2024-03-02T06:15:14.977Z,8.13
2024-03-02T06:17:41.406Z,8.09
2024-03-02T06:20:09.598Z,8.08
2024-03-02T06:22:36.289Z,8.07
2024-03-02T06:25:02.788Z,8.07
2024-03-02T06:27:29.323Z,8.06
2024-03-02T06:29:55.991Z,8.05
2024-03-02T06:32:22.419Z,8.04
2024-03-02T06:34:48.832Z,8.02
2024-03-02T06:37:17.026Z,7.96
2024-03-02T06:39:44.338Z,7.99
2024-03-02T06:42:11.082Z,7.94
2024-03-02T06:44:37.517Z,7.94
2024-03-02T06:47:03.985Z,7.94
2024-03-02T06:49:30.408Z,7.94
2024-03-02T06:51:56.877Z,7.92
2024-03-02T06:54:23.429Z,7.95
2024-03-02T06:56:50.051Z,7.97
2024-03-02T06:59:16.510Z,7.95
2024-03-02T07:01:44.549Z,7.97
2024-03-02T07:04:11.018Z,7.98
2024-03-02T07:06:37.435Z,7.97
2024-03-02T07:09:04.287Z,7.99
2024-03-02T07:11:30.750Z,8.00
2024-03-02T07:13:57.270Z,8.01
2024-03-02T07:16:30.875Z,8.03
2024-03-02T07:18:57.984Z,8.01
2024-03-02T07:21:24.674Z,8.02
2024-03-02T07:23:51.326Z,8.04
2024-03-02T07:28:50.117Z,8.03
2024-03-02T07:31:16.604Z,8.04
2024-03-02T07:33:45.228Z,8.06
2024-03-02T07:36:11.959Z,8.08
2024-03-02T07:38:38.425Z,8.08
2024-03-02T07:41:05.654Z,8.07
2024-03-02T07:43:34.254Z,8.08
2024-03-02T07:46:00.736Z,8.05
2024-03-02T07:48:28.117Z,8.06
2024-03-02T07:50:54.579Z,8.06
2024-03-02T07:53:20.990Z,8.07
2024-03-02T07:55:47.389Z,8.10
2024-03-02T07:58:14.199Z,8.05
2024-03-02T08:00:41.575Z,8.07
2024-03-02T08:03:08.378Z,8.08
2024-03-02T08:05:34.847Z,8.09
2024-03-02T08:08:01.287Z,8.12
2024-03-02T08:10:27.675Z,8.12
2024-03-02T08:12:54.139Z,8.17
2024-03-02T08:15:20.666Z,8.17
2024-03-02T08:17:50.567Z,8.19
2024-03-02T08:20:17.105Z,8.23
2024-03-02T08:22:43.719Z,8.28
2024-03-02T08:25:10.765Z,8.28
2024-03-02T08:27:37.540Z,8.32
2024-03-02T08:30:07.618Z,8.33
2024-03-02T08:32:34.320Z,8.35
2024-03-02T08:35:00.912Z,8.39
2024-03-02T08:37:27.782Z,8.40
2024-03-02T08:39:54.433Z,8.43
2024-03-02T08:42:20.997Z,8.46
2024-03-02T08:44:47.626Z,8.48
2024-03-02T08:47:14.524Z,8.48
2024-03-02T08:49:40.965Z,8.49
2024-03-02T08:52:07.428Z,8.51
2024-03-02T08:54:35.208Z,8.55
2024-03-02T08:57:01.693Z,8.58
2024-03-02T08:59:28.948Z,8.62
2024-03-02T09:01:55.662Z,8.70
2024-03-02T09:04:25.327Z,8.76
2024-03-02T09:06:53.439Z,8.88
2024-03-02T09:09:19.907Z,9.00
2024-03-02T09:11:47.515Z,9.10
2024-03-02T09:14:16.025Z,9.17
2024-03-02T09:16:43.036Z,9.27
2024-03-02T09:19:10.732Z,9.37
2024-03-02T09:21:37.300Z,9.38
2024-03-02T09:24:04.704Z,9.37
2024-03-02T09:26:31.176Z,9.45
2024-03-02T09:28:57.607Z,9.50
2024-03-02T09:31:24.024Z,9.53
2024-03-02T09:33:50.589Z,9.59
2024-03-02T09:36:21.740Z,9.59
2024-03-02T09:38:48.241Z,9.64
2024-03-02T09:41:15.970Z,9.68
2024-03-02T09:43:42.510Z,9.73
2024-03-02T09:46:12.281Z,9.70
2024-03-02T09:48:39.365Z,9.76
2024-03-02T09:51:06.738Z,9.74
2024-03-02T09:53:34.739Z,9.72
2024-03-02T09:56:01.806Z,9.69
2024-03-02T09:58:28.286Z,9.70
2024-03-02T10:00:54.939Z,9.73
2024-03-02T10:03:23.467Z,9.68
2024-03-02T10:05:49.927Z,9.64
2024-03-02T10:08:16.451Z,9.64
2024-03-02T10:10:45.520Z,9.68
2024-03-02T10:13:13.433Z,9.67
2024-03-02T10:15:42.168Z,9.68
2024-03-02T10:18:13.483Z,9.65
2024-03-02T10:20:41.238Z,9.63
2024-03-02T10:23:18.486Z,9.60
2024-03-02T10:25:52.068Z,9.64
2024-03-02T10:28:24.400Z,9.67
2024-03-02T10:30:52.527Z,9.74
2024-03-02T10:33:19.083Z,9.78
2024-03-02T10:35:45.770Z,9.78
2024-03-02T10:38:12.728Z,9.88
2024-03-02T10:40:39.309Z,9.97
2024-03-02T10:43:07.143Z,10.08
2024-03-02T10:45:34.188Z,10.15
2024-03-02T10:48:03.198Z,10.23
2024-03-02T10:50:30.166Z,10.30
2024-03-02T10:52:56.561Z,10.40
2024-03-02T10:55:23.146Z,10.45
2024-03-02T10:57:53.368Z,10.54
2024-03-02T11:00:25.852Z,10.57
2024-03-02T11:02:57.186Z,10.66
2024-03-02T11:05:28.932Z,10.74
2024-03-02T11:08:02.194Z,10.78
2024-03-02T11:10:37.751Z,10.83
2024-03-02T11:13:11.074Z,11.00
2024-03-02T11:15:38.523Z,11.01
2024-03-02T11:18:09.795Z,11.08
2024-03-02T11:20:39.782Z,11.14
2024-03-02T11:23:08.001Z,11.17
2024-03-02T11:25:34.753Z,11.25
2024-03-02T11:28:03.725Z,11.27
2024-03-02T11:30:33.605Z,11.22
2024-03-02T11:33:11.305Z,11.16
2024-03-02T11:35:43.935Z,11.11
2024-03-02T11:38:10.745Z,11.15
2024-03-02T11:40:37.315Z,11.19
2024-03-02T11:43:06.356Z,11.23
2024-03-02T11:45:34.716Z,11.29
2024-03-02T11:48:01.879Z,11.20
2024-03-02T11:50:34.466Z,11.33
2024-03-02T11:53:01.150Z,11.32
2024-03-02T11:55:28.063Z,11.37
2024-03-02T11:57:54.532Z,11.39
2024-03-02T12:00:21.551Z,11.43
2024-03-02T12:03:01.802Z,11.33
2024-03-02T12:05:28.859Z,11.37
2024-03-02T12:08:03.093Z,11.37
2024-03-02T12:10:30.461Z,11.38
2024-03-02T12:13:00.171Z,11.38
2024-03-02T12:15:31.835Z,11.36
2024-03-02T12:18:02.245Z,11.32
2024-03-02T12:20:30.594Z,11.27
2024-03-02T12:23:00.905Z,11.26
2024-03-02T12:25:38.595Z,11.19
2024-03-02T12:28:08.268Z,11.16
2024-03-02T12:30:36.874Z,11.13
2024-03-02T12:33:03.635Z,11.08
2024-03-02T12:35:33.035Z,11.09
2024-03-02T12:37:59.615Z,11.10
2024-03-02T12:40:35.120Z,11.13
2024-03-02T12:43:02.068Z,11.10
2024-03-02T12:45:28.707Z,11.11
2024-03-02T12:47:55.310Z,11.16
2024-03-02T12:50:22.647Z,11.24
2024-03-02T12:52:56.103Z,11.34
2024-03-02T12:55:23.981Z,11.43
2024-03-02T12:57:52.457Z,11.50
2024-03-02T13:00:20.662Z,11.57
2024-03-02T13:02:48.620Z,11.57
2024-03-02T13:05:15.147Z,11.58
2024-03-02T13:07:42.101Z,11.56
2024-03-02T13:10:11.425Z,11.63
2024-03-02T13:12:38.304Z,11.63
2024-03-02T13:15:06.534Z,11.68
2024-03-02T13:17:38.071Z,11.66
2024-03-02T13:20:09.474Z,11.57
2024-03-02T13:22:36.408Z,11.57
2024-03-02T13:25:05.361Z,11.58
2024-03-02T13:27:35.823Z,11.59
2024-03-02T13:30:10.042Z,11.51
2024-03-02T13:32:36.586Z,11.48
2024-03-02T13:35:04.149Z,11.54
2024-03-02T13:37:30.607Z,11.53
2024-03-02T13:39:57.058Z,11.46
2024-03-02T13:42:23.759Z,11.54
2024-03-02T13:44:52.251Z,11.53
2024-03-02T13:47:18.890Z,11.51
2024-03-02T13:49:47.333Z,11.47
2024-03-02T13:52:18.405Z,11.48
2024-03-02T13:54:46.917Z,11.49
2024-03-02T13:57:18.071Z,11.53
2024-03-02T13:59:45.015Z,11.57
2024-03-02T14:02:12.974Z,11.52
2024-03-02T14:04:42.098Z,11.48
2024-03-02T14:07:09.252Z,11.41
2024-03-02T14:09:36.255Z,11.35
2024-03-02T14:12:03.497Z,11.36
2024-03-02T14:14:29.974Z,11.30
2024-03-02T14:17:06.703Z,11.27
2024-03-02T14:19:33.425Z,11.31
2024-03-02T14:22:00.318Z,11.25
2024-03-02T14:24:27.610Z,11.17
2024-03-02T14:26:58.413Z,11.18
2024-03-02T14:29:29.956Z,11.14
2024-03-02T14:31:56.459Z,11.08
2024-03-02T14:34:23.372Z,11.04
2024-03-02T14:36:49.989Z,11.07
2024-03-02T14:39:16.442Z,11.12
2024-03-02T14:41:42.860Z,10.99
2024-03-02T14:44:09.286Z,10.95
2024-03-02T14:46:35.984Z,11.04
2024-03-02T14:49:02.747Z,11.07
2024-03-02T14:51:31.206Z,11.03
2024-03-02T14:53:57.659Z,10.93
2024-03-02T14:56:24.086Z,11.02
2024-03-02T14:58:52.114Z,10.98
2024-03-02T15:01:19.048Z,10.97
2024-03-02T15:03:45.634Z,10.91
2024-03-02T15:06:12.113Z,10.88
2024-03-02T15:08:38.552Z,10.90
2024-03-02T15:11:05.135Z,10.85
2024-03-02T15:13:31.775Z,10.83
2024-03-02T15:15:58.307Z,10.78
2024-03-02T15:18:25.266Z,10.77
2024-03-02T15:20:51.895Z,10.79
2024-03-02T15:23:18.354Z,10.75
2024-03-02T15:25:44.810Z,10.76
2024-03-02T15:28:11.289Z,10.68
2024-03-02T15:30:37.804Z,10.67
2024-03-02T15:33:04.806Z,10.66
2024-03-02T15:35:31.270Z,10.59
2024-03-02T15:37:57.694Z,10.57
2024-03-02T15:40:24.144Z,10.55
2024-03-02T15:42:50.667Z,10.54
2024-03-02T15:45:17.782Z,10.50
2024-03-02T15:47:44.633Z,10.46
2024-03-02T15:50:11.091Z,10.43
2024-03-02T15:52:37.606Z,10.49
2024-03-02T15:55:06.736Z,10.46
2024-03-02T15:57:34.409Z,10.38
2024-03-02T16:00:00.820Z,10.39
2024-03-02T16:02:27.252Z,10.40
2024-03-02T16:04:53.729Z,10.40
2024-03-02T16:07:20.219Z,10.34
2024-03-02T16:09:46.701Z,10.36
2024-03-02T16:12:13.514Z,10.27
2024-03-02T16:14:39.938Z,10.25
2024-03-02T16:17:07.425Z,10.28
2024-03-02T16:19:35.377Z,10.27
2024-03-02T16:22:01.971Z,10.17
2024-03-02T16:24:28.599Z,10.18
2024-03-02T16:26:55.121Z,10.20
2024-03-02T16:29:21.537Z,10.16
2024-03-02T16:31:47.931Z,10.18
2024-03-02T16:34:14.491Z,10.13
2024-03-02T16:36:41.917Z,10.09
2024-03-02T16:39:09.952Z,10.07
2024-03-02T16:41:36.657Z,10.08
2024-03-02T16:44:06.673Z,10.15
2024-03-02T16:46:33.497Z,10.07
2024-03-02T16:49:00.095Z,10.06
2024-03-02T16:51:26.615Z,10.01
2024-03-02T16:53:53.031Z,10.00
2024-03-02T16:56:19.497Z,10.00
2024-03-02T16:58:45.908Z,9.99
2024-03-02T17:01:12.408Z,10.03
2024-03-02T17:03:38.899Z,10.03
2024-03-02T17:06:05.554Z,10.01
2024-03-02T17:08:32.019Z,9.98
2024-03-02T17:10:58.579Z,9.95
2024-03-02T17:13:25.328Z,9.99
2024-03-02T17:15:51.784Z,9.95
2024-03-02T17:18:18.477Z,9.98
2024-03-02T17:20:45.105Z,9.94
2024-03-02T17:23:11.586Z,9.92
2024-03-02T17:25:38.099Z,9.89
2024-03-02T17:28:19.830Z,9.89
2024-03-02T17:30:46.261Z,9.90
2024-03-02T17:33:12.763Z,9.89
2024-03-02T17:35:39.236Z,9.89
2024-03-02T17:38:05.648Z,9.86
2024-03-02T17:40:32.769Z,9.82
2024-03-02T17:42:59.215Z,9.79
2024-03-02T17:45:25.838Z,9.79
2024-03-02T17:47:52.296Z,9.71
2024-03-02T17:50:18.714Z,9.69
2024-03-02T17:52:45.773Z,9.64
2024-03-02T17:55:12.324Z,9.57
2024-03-02T17:57:38.836Z,9.53
2024-03-02T18:00:06.492Z,9.47
2024-03-02T18:02:34.631Z,9.43
2024-03-02T18:05:01.039Z,9.46
2024-03-02T18:07:27.480Z,9.43
2024-03-02T18:09:53.979Z,9.36
2024-03-02T18:12:20.522Z,9.33
2024-03-02T18:14:47.006Z,9.27
2024-03-02T18:17:13.722Z,9.25
2024-03-02T18:19:40.189Z,9.22
2024-03-02T18:22:06.823Z,9.17
2024-03-02T18:24:36.491Z,9.15
2024-03-02T18:27:04.530Z,9.11
2024-03-02T18:29:30.958Z,9.07
2024-03-02T18:31:58.793Z,9.04
2024-03-02T18:34:25.290Z,9.01
2024-03-02T18:36:52.304Z,8.98
2024-03-02T18:39:19.381Z,8.96
2024-03-02T18:41:45.800Z,8.93
2024-03-02T18:44:12.233Z,8.92
2024-03-02T18:46:38.683Z,8.91
2024-03-02T18:49:05.145Z,8.88
2024-03-02T18:51:31.668Z,8.86
2024-03-02T18:53:58.097Z,8.84
2024-03-02T18:56:24.564Z,8.84
2024-03-02T18:58:51.022Z,8.83
2024-03-02T19:01:17.503Z,8.77
2024-03-02T19:03:44.362Z,8.74
2024-03-02T19:06:17.375Z,8.71
2024-03-02T19:08:44.229Z,8.66
2024-03-02T19:11:15.224Z,8.63
2024-03-02T19:13:42.582Z,8.63
2024-03-02T19:16:13.516Z,8.66
2024-03-02T19:18:41.011Z,8.63
2024-03-02T19:21:08.266Z,8.60
2024-03-02T19:23:40.399Z,8.57
2024-03-02T19:26:12.584Z,8.55
2024-03-02T19:28:39.011Z,8.53
2024-03-02T19:31:05.487Z,8.58
2024-03-02T19:33:32.005Z,8.56
2024-03-02T19:35:58.483Z,8.52
2024-03-02T19:38:26.308Z,8.52
2024-03-02T19:40:53.001Z,8.51
2024-03-02T19:43:19.550Z,8.46
2024-03-02T19:45:46.051Z,8.42
2024-03-02T19:48:12.686Z,8.40
2024-03-02T19:50:40.903Z,8.40
2024-03-02T19:53:07.327Z,8.37
2024-03-02T19:55:33.790Z,8.36
2024-03-02T19:58:00.277Z,8.35
2024-03-02T20:00:26.717Z,8.38
2024-03-02T20:02:53.160Z,8.41
2024-03-02T20:05:19.574Z,8.40
2024-03-02T20:07:46.101Z,8.38
2024-03-02T20:10:13.877Z,8.38
2024-03-02T20:12:40.510Z,8.37
2024-03-02T20:15:07.518Z,8.36
2024-03-02T20:17:34.031Z,8.36
2024-03-02T20:20:00.507Z,8.34
2024-03-02T20:22:26.921Z,8.36
2024-03-02T20:24:53.367Z,8.37
2024-03-02T20:27:20.613Z,8.36
2024-03-02T20:29:47.021Z,8.35
2024-03-02T20:32:13.574Z,8.28
2024-03-02T20:34:39.987Z,8.35
2024-03-02T20:37:06.420Z,8.33
2024-03-02T20:39:33.078Z,8.29
2024-03-02T20:41:59.557Z,8.25
2024-03-02T20:44:27.123Z,8.19
2024-03-02T20:46:54.289Z,8.15
2024-03-02T20:49:21.139Z,8.13
2024-03-02T20:51:47.778Z,8.11
2024-03-02T20:54:14.236Z,8.10
2024-03-02T20:56:43.744Z,8.08
2024-03-02T20:59:10.180Z,8.06
2024-03-02T21:01:37.203Z,8.02
2024-03-02T21:04:03.967Z,7.99
2024-03-02T21:06:30.731Z,7.95
2024-03-02T21:08:57.268Z,7.92
2024-03-02T21:11:23.835Z,7.94
2024-03-02T21:13:50.482Z,7.89
2024-03-02T21:16:17.708Z,7.93
2024-03-02T21:18:44.607Z,7.96
2024-03-02T21:21:14.306Z,7.87
2024-03-02T21:23:40.729Z,7.86
2024-03-02T21:26:07.126Z,7.81
2024-03-02T21:28:33.556Z,7.81
2024-03-02T21:31:00.212Z,7.79
2024-03-02T21:33:29.714Z,7.79
2024-03-02T21:35:56.065Z,7.80
2024-03-02T21:38:22.528Z,7.79
2024-03-02T21:40:50.019Z,7.79
2024-03-02T21:43:16.597Z,7.74
2024-03-02T21:45:43.760Z,7.70
2024-03-02T21:48:10.269Z,7.68
2024-03-02T21:50:36.735Z,7.66
2024-03-02T21:53:04.702Z,7.65
2024-03-02T21:55:31.123Z,7.62
2024-03-02T21:57:58.079Z,7.64
2024-03-02T22:00:25.240Z,7.62
2024-03-02T22:02:51.660Z,7.64
2024-03-02T22:05:18.131Z,7.64
2024-03-02T22:07:44.545Z,7.62
2024-03-02T22:10:11.021Z,7.58
2024-03-02T22:12:37.460Z,7.57
2024-03-02T22:15:04.230Z,7.59
2024-03-02T22:17:30.664Z,7.57
2024-03-02T22:19:57.487Z,7.56
2024-03-02T22:22:24.039Z,7.58
2024-03-02T22:24:50.482Z,7.57
2024-03-02T22:27:17.057Z,7.56
2024-03-02T22:29:43.477Z,7.52
2024-03-02T22:32:09.872Z,7.52
2024-03-02T22:34:36.262Z,7.51
2024-03-02T22:37:02.734Z,7.51
2024-03-02T22:39:29.240Z,7.51
2024-03-02T22:41:56.121Z,7.53
2024-03-02T22:44:22.699Z,7.55
2024-03-02T22:46:49.094Z,7.55
2024-03-02T22:49:15.616Z,7.50
2024-03-02T22:51:42.251Z,7.48
2024-03-02T22:54:08.725Z,7.49
2024-03-02T22:56:35.130Z,7.58
2024-03-02T22:59:02.061Z,7.51
2024-03-02T23:01:28.611Z,7.45
2024-03-02T23:03:55.169Z,7.41
2024-03-02T23:06:21.630Z,7.37
2024-03-02T23:08:48.107Z,7.35
2024-03-02T23:11:14.608Z,7.36
2024-03-02T23:13:41.116Z,7.37
2024-03-02T23:16:07.622Z,7.33
2024-03-02T23:18:34.157Z,7.33
2024-03-02T23:21:00.599Z,7.32
2024-03-02T23:23:27.024Z,7.28
2024-03-02T23:25:53.429Z,7.28
2024-03-02T23:28:19.936Z,7.27
2024-03-02T23:30:47.056Z,7.28
2024-03-02T23:33:13.554Z,7.29
2024-03-02T23:35:39.976Z,7.29
2024-03-02T23:38:06.751Z,7.33
2024-03-02T23:40:51.566Z,7.28
2024-03-02T23:43:18.102Z,7.28
2024-03-02T23:45:44.609Z,7.26
2024-03-02T23:48:11.611Z,7.21
2024-03-02T23:50:38.096Z,7.21
2024-03-02T23:53:04.820Z,7.17
2024-03-02T23:55:42.747Z,7.16
2024-03-02T23:58:17.659Z,7.10
